Time;durP1;ratioP1;P1;durP2;ratioP2;P2;SDS_P1;SDS_P2;PMS_P1;PMS_P2;Temp;Humidity;BMP_temperature;BMP_pressure;BME280_temperature;BME280_humidity;BME280_pressure;Samples;Min_cycle;Max_cycle;Signal;HPM_P1;HPM_P2
2023/07/30 00:01:31;;;;;;;5.87;5.07;;;15.80;99.90;;;;;;4972660;28;20559;-74
2023/07/30 00:03:56;;;;;;;5.50;5.00;;;15.80;99.90;;;;;;4972440;28;20551;-73
2023/07/30 00:06:22;;;;;;;7.30;4.90;;;15.80;99.90;;;;;;4978798;28;20256;-74
2023/07/30 00:08:47;;;;;;;6.47;5.03;;;15.80;99.90;;;;;;4992115;28;20666;-73
2023/07/30 00:11:13;;;;;;;6.50;5.13;;;15.80;99.90;;;;;;4976625;28;20174;-74
2023/07/30 00:13:39;;;;;;;9.33;5.73;;;15.70;99.90;;;;;;4973593;28;20244;-74
2023/07/30 00:16:04;;;;;;;7.63;5.07;;;15.70;99.90;;;;;;4982151;28;20213;-74
2023/07/30 00:18:30;;;;;;;12.60;5.60;;;15.70;99.90;;;;;;4993339;28;20425;-74
2023/07/30 00:20:55;;;;;;;11.73;5.73;;;15.70;99.90;;;;;;4993754;28;20271;-74
2023/07/30 00:23:21;;;;;;;7.90;5.50;;;15.70;99.90;;;;;;4995432;28;20196;-76
2023/07/30 00:25:47;;;;;;;11.53;4.90;;;15.60;99.90;;;;;;4982058;28;20769;-74
2023/07/30 00:28:12;;;;;;;12.00;5.70;;;15.60;99.90;;;;;;4977460;28;20209;-74
2023/07/30 00:30:38;;;;;;;6.67;4.80;;;15.60;99.90;;;;;;4979984;28;20602;-74
2023/07/30 00:33:03;;;;;;;5.17;4.60;;;15.50;99.90;;;;;;5002452;28;20189;-74
2023/07/30 00:35:29;;;;;;;6.47;5.73;;;15.50;99.90;;;;;;4975950;28;20193;-74
2023/07/30 00:37:55;;;;;;;5.20;4.73;;;15.50;99.90;;;;;;4980692;28;20591;-74
2023/07/30 00:40:20;;;;;;;5.27;4.77;;;15.50;99.90;;;;;;4994985;28;20200;-74
2023/07/30 00:42:46;;;;;;;5.53;4.97;;;15.40;99.90;;;;;;4993927;28;20546;-74
2023/07/30 00:45:11;;;;;;;4.97;4.57;;;15.40;99.90;;;;;;4994034;28;20201;-74
2023/07/30 00:47:38;;;;;;;6.77;5.27;;;15.40;99.90;;;;;;4993911;28;20189;-74
2023/07/30 00:50:05;;;;;;;6.10;5.50;;;15.40;99.90;;;;;;4976135;28;20201;-74
2023/07/30 00:52:32;;;;;;;8.23;5.13;;;15.40;99.90;;;;;;4979576;28;20189;-75
2023/07/30 00:55:01;;;;;;;6.60;4.90;;;15.40;99.90;;;;;;4993951;28;20220;-75
2023/07/30 00:57:26;;;;;;;9.43;5.20;;;15.40;99.90;;;;;;4995237;28;20181;-75
2023/07/30 00:59:52;;;;;;;9.00;4.97;;;15.30;99.90;;;;;;4995221;28;20202;-74
2023/07/30 01:02:18;;;;;;;8.70;5.27;;;15.40;99.90;;;;;;4995321;28;20552;-74
2023/07/30 01:04:44;;;;;;;5.27;4.80;;;15.50;99.90;;;;;;4990852;28;20202;-73
2023/07/30 01:07:10;;;;;;;8.93;5.20;;;15.50;99.90;;;;;;4976599;28;20233;-74
2023/07/30 01:09:36;;;;;;;5.83;5.20;;;15.50;99.90;;;;;;4975257;28;20264;-75
2023/07/30 01:12:03;;;;;;;8.73;5.10;;;15.50;99.90;;;;;;5006134;28;20190;-74
2023/07/30 01:14:29;;;;;;;8.33;5.30;;;15.60;99.90;;;;;;4993272;28;20280;-75
2023/07/30 01:16:55;;;;;;;8.43;4.70;;;15.60;99.90;;;;;;4994456;28;20173;-75
2023/07/30 01:19:20;;;;;;;7.70;5.20;;;15.60;99.90;;;;;;4990002;28;20742;-74
2023/07/30 01:21:46;;;;;;;5.70;4.83;;;15.60;99.90;;;;;;4975124;28;20177;-74
2023/07/30 01:26:48;;;;;;;6.37;5.10;;;15.70;99.90;;;;;;5032108;28;20207;-72
2023/07/30 01:29:32;;;;;;;6.97;5.27;;;15.70;99.90;;;;;;5033609;28;20242;-71
2023/07/30 01:32:04;;;;;;;6.43;5.00;;;15.80;99.90;;;;;;5033161;28;20343;-72
2023/07/30 01:34:33;;;;;;;5.97;5.17;;;15.90;99.90;;;;;;5024394;28;20192;-72
2023/07/30 01:36:59;;;;;;;7.80;5.50;;;16.00;99.90;;;;;;4994147;28;20184;-72
2023/07/30 01:39:25;;;;;;;8.97;4.80;;;16.10;99.90;;;;;;4992826;28;20184;-73
2023/07/30 01:41:54;;;;;;;8.30;5.10;;;16.20;99.90;;;;;;4996818;28;20550;-73
2023/07/30 01:44:20;;;;;;;5.30;4.80;;;16.30;99.90;;;;;;4993771;28;20187;-72
2023/07/30 01:46:45;;;;;;;5.30;4.80;;;16.30;99.90;;;;;;4994014;28;20542;-73
2023/07/30 01:49:11;;;;;;;8.77;5.70;;;16.40;99.90;;;;;;5012981;28;20546;-73
2023/07/30 01:51:36;;;;;;;11.00;4.73;;;16.40;99.90;;;;;;5013278;28;20192;-72
2023/07/30 01:54:02;;;;;;;5.63;5.13;;;16.50;99.90;;;;;;5013228;28;20222;-73
2023/07/30 01:56:27;;;;;;;7.23;4.77;;;16.50;99.90;;;;;;5011921;28;20665;-73
2023/07/30 01:58:53;;;;;;;5.20;4.77;;;16.60;99.90;;;;;;5012594;28;20266;-73
2023/07/30 02:01:19;;;;;;;4.83;4.33;;;16.60;99.90;;;;;;5012735;28;20195;-72
2023/07/30 02:03:44;;;;;;;5.33;4.60;;;16.70;99.90;;;;;;5013290;28;20183;-73
2023/07/30 02:06:11;;;;;;;6.07;5.40;;;16.70;99.90;;;;;;5011592;28;20566;-72
2023/07/30 02:08:36;;;;;;;10.73;4.93;;;16.80;99.90;;;;;;5013112;28;20334;-73
2023/07/30 02:11:02;;;;;;;5.37;4.87;;;16.80;99.90;;;;;;5013225;28;20618;-73
2023/07/30 02:13:28;;;;;;;6.67;4.70;;;16.80;99.90;;;;;;5012513;28;20251;-73
2023/07/30 02:15:53;;;;;;;5.23;4.13;;;16.90;99.90;;;;;;5012594;28;20282;-73
2023/07/30 02:18:19;;;;;;;11.83;4.80;;;16.90;99.90;;;;;;5012842;28;20263;-72
2023/07/30 02:20:45;;;;;;;4.53;4.13;;;16.90;99.90;;;;;;5013115;28;20204;-72
2023/07/30 02:23:10;;;;;;;5.10;4.17;;;16.90;99.90;;;;;;5012212;28;20585;-73
2023/07/30 02:25:38;;;;;;;4.87;4.23;;;16.90;99.90;;;;;;5011864;28;20238;-72
2023/07/30 02:28:03;;;;;;;4.77;4.33;;;16.90;99.90;;;;;;5012368;28;20200;-73
2023/07/30 02:30:29;;;;;;;5.40;4.70;;;16.90;99.90;;;;;;5011076;28;20275;-73
2023/07/30 02:32:55;;;;;;;8.03;4.53;;;16.90;99.90;;;;;;5012097;28;20176;-72
2023/07/30 02:35:20;;;;;;;4.50;4.10;;;16.90;99.90;;;;;;5011295;28;20195;-73
2023/07/30 02:37:46;;;;;;;5.03;4.07;;;16.90;99.90;;;;;;5012743;28;20180;-72
2023/07/30 02:40:12;;;;;;;7.97;4.43;;;16.90;99.90;;;;;;5012385;28;20251;-72
2023/07/30 02:42:37;;;;;;;4.73;4.33;;;16.90;99.90;;;;;;5011658;28;20661;-73
2023/07/30 02:45:05;;;;;;;6.20;4.20;;;16.90;99.90;;;;;;5012635;28;20195;-73
2023/07/30 02:47:30;;;;;;;4.47;4.07;;;16.80;99.90;;;;;;5012383;28;20203;-73
2023/07/30 02:49:56;;;;;;;7.43;3.93;;;16.80;99.90;;;;;;5012280;28;20168;-73
2023/07/30 02:52:21;;;;;;;8.43;4.23;;;16.80;99.90;;;;;;5011920;28;20676;-73
2023/07/30 02:54:47;;;;;;;9.27;3.97;;;16.80;99.90;;;;;;5012134;28;20199;-73
2023/07/30 02:57:12;;;;;;;4.43;4.03;;;16.80;99.90;;;;;;4992831;28;20176;-73
2023/07/30 02:59:40;;;;;;;5.87;4.60;;;16.80;99.90;;;;;;4991408;28;20180;-72
2023/07/30 03:02:06;;;;;;;8.13;3.80;;;16.80;99.90;;;;;;4992216;28;20216;-73
2023/07/30 03:04:31;;;;;;;4.87;3.73;;;16.80;99.90;;;;;;5002585;28;20259;-72
2023/07/30 03:06:57;;;;;;;4.17;3.77;;;16.80;99.90;;;;;;5011000;28;20676;-71
2023/07/30 03:09:23;;;;;;;4.80;4.10;;;16.80;99.90;;;;;;5011854;28;20653;-72
2023/07/30 03:11:55;;;;;;;3.90;3.60;;;16.80;99.90;;;;;;5010298;28;20211;-72
2023/07/30 03:14:20;;;;;;;5.33;4.23;;;16.80;99.90;;;;;;5011709;28;20199;-72
2023/07/30 03:16:47;;;;;;;6.17;3.87;;;16.80;99.90;;;;;;5011984;28;20180;-72
2023/07/30 03:19:13;;;;;;;8.60;4.17;;;16.80;99.90;;;;;;5012112;28;20271;-72
2023/07/30 03:21:39;;;;;;;8.67;5.50;;;16.80;99.90;;;;;;4992664;28;20710;-71
2023/07/30 03:24:04;;;;;;;4.70;4.23;;;16.80;99.90;;;;;;4992137;28;20169;-73
2023/07/30 03:26:30;;;;;;;5.40;4.07;;;16.80;99.90;;;;;;5007543;28;20212;-71
2023/07/30 03:28:56;;;;;;;4.83;3.90;;;16.80;99.90;;;;;;5011996;28;20635;-72
2023/07/30 03:31:21;;;;;;;7.37;4.20;;;16.70;99.90;;;;;;5011500;28;20653;-71
2023/07/30 03:33:47;;;;;;;4.40;3.60;;;16.60;99.90;;;;;;5011562;28;20203;-72
2023/07/30 03:36:13;;;;;;;6.57;3.53;;;16.60;99.90;;;;;;5011520;28;20203;-71
2023/07/30 03:38:39;;;;;;;4.73;3.63;;;16.50;99.90;;;;;;5011173;28;20657;-72
2023/07/30 03:41:06;;;;;;;4.20;3.73;;;16.50;99.90;;;;;;5011832;28;20225;-73
2023/07/30 03:43:34;;;;;;;5.00;3.37;;;16.40;99.90;;;;;;5011134;28;20184;-73
2023/07/30 03:46:00;;;;;;;4.40;3.40;;;16.40;99.90;;;;;;5011544;28;20267;-72
2023/07/30 03:48:26;;;;;;;3.70;2.83;;;16.30;99.90;;;;;;5011492;28;20801;-70
2023/07/30 03:50:53;;;;;;;6.33;3.63;;;16.30;99.90;;;;;;5011685;28;20176;-72
2023/07/30 03:53:19;;;;;;;5.10;3.50;;;16.30;99.90;;;;;;5010952;28;20859;-72
2023/07/30 03:55:44;;;;;;;4.53;3.23;;;16.20;99.90;;;;;;5013687;28;20243;-72
2023/07/30 03:58:10;;;;;;;5.97;3.40;;;16.20;99.90;;;;;;5015623;28;20172;-71
2023/07/30 04:00:35;;;;;;;5.63;3.13;;;16.10;99.90;;;;;;5015291;28;20184;-71
2023/07/30 04:03:01;;;;;;;5.03;3.40;;;16.10;99.90;;;;;;5015340;28;20593;-71
2023/07/30 04:05:26;;;;;;;4.60;2.90;;;16.10;99.90;;;;;;5015273;28;20206;-72
2023/07/30 04:07:52;;;;;;;4.70;3.50;;;16.10;99.90;;;;;;5015473;28;20214;-72
2023/07/30 04:10:18;;;;;;;3.13;2.93;;;16.10;99.90;;;;;;5015332;28;20176;-70
2023/07/30 04:12:44;;;;;;;4.63;3.00;;;16.10;99.90;;;;;;5014983;28;20230;-72
2023/07/30 04:15:10;;;;;;;3.43;3.00;;;16.10;99.90;;;;;;5015133;28;20212;-73
2023/07/30 04:17:37;;;;;;;3.80;3.47;;;16.10;99.90;;;;;;5015444;28;20198;-73
2023/07/30 04:20:04;;;;;;;5.63;3.93;;;16.10;99.90;;;;;;5014275;28;20199;-73
2023/07/30 04:22:29;;;;;;;5.30;3.57;;;16.20;99.90;;;;;;5014841;28;20580;-72
2023/07/30 04:24:55;;;;;;;6.73;3.53;;;16.20;99.90;;;;;;5015112;28;20196;-72
2023/07/30 04:27:21;;;;;;;3.33;3.10;;;16.20;99.90;;;;;;5014629;28;20569;-71
2023/07/30 04:29:46;;;;;;;4.53;3.63;;;16.30;99.90;;;;;;5015147;28;20176;-73
2023/07/30 04:32:12;;;;;;;4.13;3.00;;;16.30;99.90;;;;;;5014385;28;20179;-72
2023/07/30 04:34:38;;;;;;;3.20;2.90;;;16.30;99.90;;;;;;5014591;28;20207;-72
2023/07/30 04:37:04;;;;;;;3.40;3.10;;;16.30;99.90;;;;;;5015153;28;20213;-73
2023/07/30 04:39:32;;;;;;;6.10;3.47;;;16.30;99.90;;;;;;5014895;28;20187;-72
2023/07/30 04:41:57;;;;;;;8.43;3.27;;;16.30;99.90;;;;;;5014713;28;20673;-72
2023/07/30 04:44:23;;;;;;;4.47;3.20;;;16.40;99.90;;;;;;5014430;28;20172;-72
2023/07/30 04:46:49;;;;;;;5.93;3.00;;;16.40;99.90;;;;;;5014189;28;20188;-72
2023/07/30 04:49:14;;;;;;;3.53;2.97;;;16.40;99.90;;;;;;5013459;28;20175;-71
2023/07/30 04:51:40;;;;;;;4.70;3.47;;;16.40;99.90;;;;;;5014349;28;20292;-73
2023/07/30 04:54:06;;;;;;;5.17;3.27;;;16.50;99.90;;;;;;5013468;28;20187;-71
2023/07/30 04:56:31;;;;;;;3.57;3.00;;;16.60;99.90;;;;;;5013433;28;20275;-72
2023/07/30 04:58:57;;;;;;;5.27;2.87;;;16.60;99.90;;;;;;5013399;28;20176;-73
2023/07/30 05:01:24;;;;;;;3.70;3.17;;;16.70;99.90;;;;;;5013610;28;20263;-71
2023/07/30 05:03:49;;;;;;;6.37;3.60;;;16.70;99.90;;;;;;5014401;28;20180;-72
2023/07/30 05:06:15;;;;;;;5.13;3.33;;;16.70;99.90;;;;;;5013396;28;20309;-71
2023/07/30 05:08:41;;;;;;;5.10;3.00;;;16.80;99.90;;;;;;5013056;28;20215;-72
2023/07/30 05:11:06;;;;;;;5.53;3.27;;;16.70;99.90;;;;;;5014139;28;20645;-72
2023/07/30 05:13:32;;;;;;;3.20;2.90;;;16.70;99.90;;;;;;5013162;28;20674;-71
2023/07/30 05:15:57;;;;;;;3.40;2.90;;;16.60;99.90;;;;;;5014271;28;20231;-71
2023/07/30 05:18:23;;;;;;;5.70;3.13;;;16.50;99.90;;;;;;5014245;28;20180;-71
2023/07/30 05:20:49;;;;;;;3.37;2.90;;;16.40;99.90;;;;;;5014108;28;20188;-72
2023/07/30 05:23:15;;;;;;;4.37;3.10;;;16.40;99.90;;;;;;5013018;28;20176;-71
2023/07/30 05:25:40;;;;;;;3.90;3.30;;;16.40;99.90;;;;;;5013837;28;20216;-72
2023/07/30 05:28:06;;;;;;;3.53;2.87;;;16.30;99.90;;;;;;5012801;28;20273;-72
2023/07/30 05:30:31;;;;;;;4.83;2.93;;;16.40;99.90;;;;;;5013851;28;20180;-71
2023/07/30 05:32:57;;;;;;;3.60;3.10;;;16.40;99.90;;;;;;5013811;28;20203;-71
2023/07/30 05:35:23;;;;;;;5.13;3.07;;;16.50;99.90;;;;;;5013451;28;20200;-71
2023/07/30 05:37:48;;;;;;;3.10;2.80;;;16.50;99.90;;;;;;5012425;28;20207;-71
2023/07/30 05:40:14;;;;;;;3.93;2.90;;;16.70;99.90;;;;;;5013708;28;20188;-70
2023/07/30 05:42:40;;;;;;;4.23;2.80;;;16.80;99.90;;;;;;5012269;28;20191;-70
2023/07/30 05:45:06;;;;;;;7.40;3.27;;;16.80;99.90;;;;;;5001475;28;20215;-71
2023/07/30 05:47:31;;;;;;;6.33;3.10;;;16.80;99.90;;;;;;5013449;28;20206;-72
2023/07/30 05:49:57;;;;;;;3.13;2.83;;;16.80;99.90;;;;;;5013621;28;20180;-72
2023/07/30 05:52:23;;;;;;;4.77;3.00;;;16.80;99.90;;;;;;5012855;28;20180;-71
2023/07/30 05:54:48;;;;;;;4.03;3.50;;;16.70;99.90;;;;;;4992644;28;20208;-72
2023/07/30 05:57:14;;;;;;;3.70;3.10;;;16.70;99.90;;;;;;4993840;28;20184;-72
2023/07/30 05:59:40;;;;;;;4.20;3.40;;;16.80;99.90;;;;;;4996642;28;20199;-71
2023/07/30 06:02:05;;;;;;;6.93;2.70;;;16.80;99.90;;;;;;5012866;28;20622;-71
2023/07/30 06:04:31;;;;;;;4.10;2.97;;;16.90;99.90;;;;;;5011673;28;20200;-70
2023/07/30 06:07:02;;;;;;;4.33;2.80;;;16.90;99.90;;;;;;5013329;28;20208;-70
2023/07/30 06:09:28;;;;;;;3.57;3.07;;;17.00;99.90;;;;;;5012889;28;20271;-74
2023/07/30 06:11:56;;;;;;;3.13;2.83;;;17.10;99.90;;;;;;5012632;28;20263;-71
2023/07/30 06:14:22;;;;;;;3.60;2.80;;;17.20;99.90;;;;;;5012591;28;20196;-70
2023/07/30 06:16:47;;;;;;;5.80;3.00;;;17.30;99.90;;;;;;5012810;28;20645;-70
2023/07/30 06:19:13;;;;;;;3.43;3.13;;;17.50;99.90;;;;;;5011564;28;20199;-71
2023/07/30 06:21:38;;;;;;;5.33;2.90;;;17.50;99.90;;;;;;5012686;28;20251;-71
2023/07/30 06:24:04;;;;;;;2.90;2.70;;;17.70;99.90;;;;;;5012426;28;20284;-72
2023/07/30 06:26:30;;;;;;;4.77;2.70;;;17.80;99.90;;;;;;5012077;28;20204;-71
2023/07/30 06:28:55;;;;;;;4.67;3.40;;;18.00;99.90;;;;;;5011520;28;20294;-72
2023/07/30 06:31:21;;;;;;;3.77;2.70;;;18.10;99.90;;;;;;5012265;28;20255;-72
2023/07/30 06:33:47;;;;;;;4.03;2.57;;;18.20;99.90;;;;;;5012604;28;20203;-72
2023/07/30 06:36:12;;;;;;;3.43;3.00;;;18.20;99.90;;;;;;5012608;28;20184;-71
2023/07/30 06:38:38;;;;;;;4.13;3.20;;;18.20;99.90;;;;;;5012737;28;20188;-72
2023/07/30 06:41:04;;;;;;;5.70;2.90;;;18.20;99.90;;;;;;5012701;28;20517;-72
2023/07/30 06:43:30;;;;;;;4.87;2.87;;;18.20;99.90;;;;;;5010735;28;20179;-73
2023/07/30 06:45:56;;;;;;;3.17;2.87;;;18.10;99.90;;;;;;5012454;28;20196;-72
2023/07/30 06:48:21;;;;;;;3.80;2.93;;;18.10;99.90;;;;;;5012054;28;20298;-71
2023/07/30 06:50:47;;;;;;;7.23;3.47;;;18.00;99.90;;;;;;5012729;28;20172;-72
2023/07/30 06:53:12;;;;;;;5.03;3.17;;;17.90;99.90;;;;;;5009673;28;20180;-71
2023/07/30 06:55:38;;;;;;;4.53;3.10;;;17.90;99.90;;;;;;5012053;28;20223;-73
2023/07/30 06:58:03;;;;;;;7.70;3.67;;;17.90;99.90;;;;;;5010892;28;20180;-70
2023/07/30 07:00:29;;;;;;;9.27;4.37;;;18.00;99.90;;;;;;5011766;28;20182;-71
2023/07/30 07:02:55;;;;;;;9.93;3.03;;;18.00;99.90;;;;;;5011274;28;20180;-71
2023/07/30 07:05:20;;;;;;;6.67;2.97;;;18.00;99.90;;;;;;5011813;28;20665;-72
2023/07/30 07:07:46;;;;;;;4.90;3.00;;;18.10;99.90;;;;;;5011991;28;20262;-72
2023/07/30 07:10:12;;;;;;;4.37;3.10;;;18.20;99.90;;;;;;5011690;28;20171;-72
2023/07/30 07:12:39;;;;;;;8.30;3.40;;;18.30;99.90;;;;;;5010281;28;20250;-72
2023/07/30 07:15:05;;;;;;;7.33;3.50;;;18.60;99.90;;;;;;5011342;28;20230;-71
2023/07/30 07:17:31;;;;;;;5.70;3.03;;;18.50;99.90;;;;;;5011560;28;20175;-72
2023/07/30 07:19:57;;;;;;;3.63;2.90;;;18.60;99.90;;;;;;5011957;28;20176;-71
2023/07/30 07:22:23;;;;;;;6.17;3.90;;;18.90;99.90;;;;;;5009910;28;20183;-72
2023/07/30 07:24:48;;;;;;;7.00;3.13;;;19.10;99.90;;;;;;5019345;23;20677;-86
2023/07/30 07:27:14;;;;;;;5.90;3.23;;;18.90;99.90;;;;;;5011758;28;20204;-87
2023/07/30 07:29:40;;;;;;;3.57;2.87;;;19.00;99.90;;;;;;5011138;28;20253;-87
2023/07/30 07:32:06;;;;;;;3.70;3.17;;;19.00;99.90;;;;;;5028180;28;20235;-87
2023/07/30 07:34:32;;;;;;;6.43;3.07;;;19.00;99.90;;;;;;4995461;28;20281;-86
2023/07/30 07:36:57;;;;;;;5.73;2.90;;;19.00;99.90;;;;;;5011559;28;20671;-86
2023/07/30 07:39:23;;;;;;;6.23;3.03;;;19.00;99.90;;;;;;5011416;28;20176;-86
2023/07/30 07:41:49;;;;;;;4.50;3.27;;;19.00;99.90;;;;;;5011379;28;20549;-87
2023/07/30 07:44:14;;;;;;;4.40;2.87;;;18.90;99.90;;;;;;5011723;28;20555;-86
2023/07/30 07:46:40;;;;;;;5.77;2.93;;;18.90;99.90;;;;;;5013446;28;20168;-86
2023/07/30 07:49:08;;;;;;;4.03;2.83;;;18.90;99.90;;;;;;5013425;28;20208;-87
2023/07/30 07:51:34;;;;;;;3.60;2.90;;;19.10;99.90;;;;;;5015032;28;20460;-87
2023/07/30 07:53:59;;;;;;;6.47;2.87;;;19.30;99.90;;;;;;5015184;28;20526;-87
2023/07/30 07:56:25;;;;;;;7.07;3.27;;;19.40;99.90;;;;;;5014735;28;20176;-87
2023/07/30 07:58:51;;;;;;;16.77;3.93;;;19.50;99.90;;;;;;5018284;28;20199;-87
2023/07/30 08:01:16;;;;;;;6.67;3.13;;;19.50;99.90;;;;;;5018356;28;20168;-87
2023/07/30 08:03:42;;;;;;;6.03;3.23;;;19.40;99.90;;;;;;5018447;28;20183;-87
2023/07/30 08:06:08;;;;;;;4.40;3.00;;;19.40;99.90;;;;;;5018735;28;20180;-88
2023/07/30 08:08:33;;;;;;;4.17;3.00;;;19.70;99.90;;;;;;5029408;28;20207;-84
2023/07/30 08:11:08;;;;;;;6.63;3.10;;;19.70;99.90;;;;;;5037167;28;20260;-85
2023/07/30 08:13:34;;;;;;;4.57;3.33;;;19.60;99.90;;;;;;5037153;28;20187;-85
2023/07/30 08:16:00;;;;;;;14.63;4.60;;;19.50;99.90;;;;;;5037555;28;20196;-83
2023/07/30 08:18:26;;;;;;;7.67;3.80;;;19.40;99.90;;;;;;5036778;28;20171;-85
2023/07/30 08:20:51;;;;;;;4.77;3.70;;;19.30;99.90;;;;;;5036817;28;20173;-84
2023/07/30 08:23:17;;;;;;;7.43;4.07;;;19.10;99.90;;;;;;5036163;28;20200;-84
2023/07/30 08:25:43;;;;;;;5.97;3.37;;;18.90;99.90;;;;;;5028759;28;20190;-85
2023/07/30 08:28:08;;;;;;;10.80;3.20;;;18.70;99.90;;;;;;5036067;28;20226;-84
2023/07/30 08:30:34;;;;;;;11.47;3.40;;;18.50;99.90;;;;;;5037314;28;20175;-84
2023/07/30 08:32:59;;;;;;;8.97;3.87;;;18.50;99.90;;;;;;5036153;28;20233;-84
2023/07/30 08:35:26;;;;;;;8.30;4.17;;;18.60;99.90;;;;;;5035722;28;20200;-85
2023/07/30 08:37:54;;;;;;;6.40;3.47;;;18.80;99.90;;;;;;5032588;28;20176;-85
2023/07/30 08:40:23;;;;;;;5.80;3.30;;;19.30;99.90;;;;;;5006990;28;20239;-86
2023/07/30 08:42:51;;;;;;;5.43;3.63;;;19.60;99.90;;;;;;5021260;28;20198;-85
2023/07/30 08:45:17;;;;;;;7.70;3.80;;;19.90;99.90;;;;;;5018654;28;20180;-87
2023/07/30 08:47:44;;;;;;;9.17;3.73;;;20.30;99.90;;;;;;5008485;28;20300;-88
2023/07/30 08:50:10;;;;;;;7.33;3.50;;;20.70;99.90;;;;;;4997829;28;20180;-86
2023/07/30 08:52:36;;;;;;;8.27;3.87;;;20.90;99.90;;;;;;5011995;28;20211;-85
2023/07/30 08:55:05;;;;;;;5.33;3.00;;;20.90;99.90;;;;;;5027794;28;20506;-85
2023/07/30 08:57:31;;;;;;;9.20;3.87;;;21.10;99.90;;;;;;5011288;28;20188;-85
2023/07/30 09:00:08;;;;;;;6.90;4.30;;;21.20;99.90;;;;;;4996700;28;20184;-86
2023/07/30 09:02:51;;;;;;;8.15;4.53;;;21.30;99.90;;;;;;5011948;28;20200;-86
2023/07/30 09:05:18;;;;;;;6.53;3.10;;;21.40;99.90;;;;;;5010953;28;20192;-86
2023/07/30 09:07:44;;;;;;;8.20;3.47;;;21.20;99.90;;;;;;5010186;28;20246;-87
2023/07/30 09:10:09;;;;;;;4.93;3.10;;;21.00;99.90;;;;;;5011118;28;20208;-86
2023/07/30 09:12:36;;;;;;;5.83;3.00;;;21.00;99.90;;;;;;5009795;28;20204;-86
2023/07/30 09:15:04;;;;;;;5.63;3.17;;;20.90;99.90;;;;;;5009923;28;20218;-87
2023/07/30 09:17:32;;;;;;;9.40;3.73;;;20.70;99.90;;;;;;5008170;28;20184;-86
2023/07/30 09:20:03;;;;;;;7.73;3.40;;;20.60;99.90;;;;;;5009470;28;20218;-90
2023/07/30 09:22:36;;;;;;;3.97;3.00;;;20.50;99.90;;;;;;5008392;28;20204;-86
2023/07/30 09:25:03;;;;;;;6.90;3.53;;;20.50;99.90;;;;;;5009748;28;20899;-87
2023/07/30 09:27:32;;;;;;;8.17;3.30;;;20.30;99.90;;;;;;5008241;28;20295;-88
2023/07/30 09:29:59;;;;;;;3.40;3.00;;;20.50;99.90;;;;;;5008126;28;20188;-86
2023/07/30 09:32:27;;;;;;;4.70;3.03;;;21.20;99.90;;;;;;5009304;28;20717;-87
2023/07/30 09:34:52;;;;;;;4.93;2.90;;;21.60;99.90;;;;;;5012009;28;20200;-87
2023/07/30 09:37:18;;;;;;;8.30;2.65;;;21.90;99.90;;;;;;5014448;28;20294;-86
2023/07/30 09:39:47;;;;;;;5.38;2.70;;;22.60;99.90;;;;;;5015040;28;20210;-87
2023/07/30 09:42:12;;;;;;;7.25;3.80;;;23.20;99.90;;;;;;5013647;28;20208;-87
2023/07/30 09:44:39;;;;;;;5.60;3.47;;;23.30;99.90;;;;;;5013393;28;20180;-86
2023/07/30 09:47:09;;;;;;;4.90;2.97;;;22.90;99.90;;;;;;5013358;28;20670;-87
2023/07/30 09:49:36;;;;;;;4.22;3.55;;;22.90;99.90;;;;;;5013404;28;20172;-86
2023/07/30 09:52:03;;;;;;;5.75;2.88;;;23.00;99.90;;;;;;5014177;28;20188;-87
2023/07/30 09:54:30;;;;;;;4.43;2.95;;;23.30;99.90;;;;;;5013251;28;20674;-88
2023/07/30 09:56:56;;;;;;;4.03;2.40;;;23.00;99.90;;;;;;5014715;28;20589;-87
2023/07/30 09:59:22;;;;;;;6.05;2.80;;;22.90;99.90;;;;;;5014958;28;20207;-87
2023/07/30 10:01:49;;;;;;;5.15;3.00;;;23.20;99.90;;;;;;5013233;28;20196;-87
2023/07/30 10:04:18;;;;;;;4.78;2.92;;;23.50;99.90;;;;;;5014757;28;20537;-87
2023/07/30 10:07:04;;;;;;;4.07;3.10;;;23.70;99.90;;;;;;5013126;28;20180;-87
2023/07/30 10:09:43;;;;;;;4.25;2.60;;;23.40;99.90;;;;;;5014707;28;20204;-88
2023/07/30 10:12:24;;;;;;;7.00;3.17;;;23.30;99.90;;;;;;5012588;28;20206;-87
2023/07/30 10:14:50;;;;;;;5.07;3.00;;;23.60;99.90;;;;;;5012827;28;20539;-88
2023/07/30 10:17:18;;;;;;;3.85;3.22;;;23.80;99.90;;;;;;5012990;28;20186;-86
2023/07/30 10:19:49;;;;;;;10.57;9.85;;;24.40;99.90;;;;;;5013210;28;20176;-87
2023/07/30 10:22:14;;;;;;;5.40;3.78;;;24.80;99.90;;;;;;5012787;28;20199;-87
2023/07/30 10:25:13;;;;;;;5.25;2.88;;;25.40;99.90;;;;;;5014252;28;20598;-87
2023/07/30 10:27:43;;;;;;;7.53;4.07;;;25.40;99.90;;;;;;5012987;28;20210;-87
2023/07/30 10:30:16;;;;;;;6.38;4.35;;;25.60;99.90;;;;;;5013027;28;20227;-87
2023/07/30 10:33:04;;;;;;;8.57;5.43;;;25.40;99.90;;;;;;5031110;28;20183;-87
2023/07/30 10:35:43;;;;;;;5.35;3.78;;;24.60;99.90;;;;;;5012609;28;20207;-86
2023/07/30 10:38:16;;;;;;;4.50;3.60;;;23.90;99.90;;;;;;5012525;28;20179;-86
2023/07/30 10:40:59;;;;;;;6.82;2.78;;;23.60;99.90;;;;;;5012864;28;20262;-87
2023/07/30 10:43:28;;;;;;;6.63;2.75;;;23.50;99.90;;;;;;5011760;28;20215;-87
2023/07/30 10:45:53;;;;;;;6.20;3.58;;;23.60;99.90;;;;;;5031810;28;20183;-85
2023/07/30 10:48:29;;;;;;;4.60;3.75;;;23.80;99.90;;;;;;5037763;28;20204;-85
2023/07/30 10:50:55;;;;;;;4.50;3.60;;;24.30;99.90;;;;;;5019725;28;20262;-87
2023/07/30 10:53:21;;;;;;;4.70;2.55;;;24.90;99.90;;;;;;5011989;28;20606;-88
2023/07/30 10:55:48;;;;;;;2.90;2.60;;;25.30;99.90;;;;;;5011124;28;20603;-86
2023/07/30 10:58:16;;;;;;;6.18;5.78;;;25.40;99.90;;;;;;5011131;28;20176;-86
2023/07/30 11:00:42;;;;;;;3.63;2.35;;;25.60;99.90;;;;;;5015357;28;20272;-85
2023/07/30 11:03:07;;;;;;;4.75;4.43;;;25.40;99.90;;;;;;5013677;28;20235;-86
2023/07/30 11:05:33;;;;;;;3.53;2.20;;;25.00;99.90;;;;;;5011716;28;20262;-87
2023/07/30 11:07:59;;;;;;;2.33;2.13;;;24.90;99.90;;;;;;5013485;28;20269;-85
2023/07/30 11:10:24;;;;;;;5.80;2.70;;;24.60;99.90;;;;;;5013341;28;20195;-86
2023/07/30 11:12:51;;;;;;;5.22;2.72;;;24.20;99.90;;;;;;5011674;28;20192;-86
2023/07/30 11:15:16;;;;;;;4.28;2.90;;;24.00;99.90;;;;;;5011225;28;20195;-85
2023/07/30 11:17:44;;;;;;;4.88;3.40;;;23.90;99.90;;;;;;5012538;28;20176;-86
2023/07/30 11:20:27;;;;;;;5.25;3.70;;;23.80;99.90;;;;;;5011732;28;20176;-86
2023/07/30 11:22:54;;;;;;;3.30;3.00;;;23.80;99.90;;;;;;5011382;28;20729;-87
2023/07/30 11:25:20;;;;;;;4.57;2.72;;;23.50;99.90;;;;;;5011425;28;20338;-86
2023/07/30 11:27:50;;;;;;;2.85;2.22;;;23.00;99.90;;;;;;5011653;28;20208;-87
2023/07/30 11:30:17;;;;;;;2.97;2.55;;;22.70;99.90;;;;;;4994816;28;20194;-86
2023/07/30 11:32:45;;;;;;;5.15;2.60;;;22.40;99.90;;;;;;5011034;28;20575;-86
2023/07/30 11:35:14;;;;;;;3.78;2.58;;;22.30;99.90;;;;;;5012613;28;20654;-87
2023/07/30 11:37:42;;;;;;;6.18;2.78;;;22.30;99.90;;;;;;5010896;28;20194;-86
2023/07/30 11:40:12;;;;;;;3.65;3.00;;;22.60;99.90;;;;;;5013018;28;20188;-86
2023/07/30 11:42:39;;;;;;;5.22;2.63;;;22.90;99.90;;;;;;5012158;28;20227;-86
2023/07/30 11:45:23;;;;;;;5.63;2.50;;;22.80;99.90;;;;;;5010580;28;20176;-87
2023/07/30 11:47:49;;;;;;;4.93;2.42;;;22.80;99.90;;;;;;5010918;28;20212;-86
2023/07/30 11:50:15;;;;;;;4.28;2.30;;;22.90;99.90;;;;;;4994792;28;20180;-86
2023/07/30 11:52:55;;;;;;;2.83;2.50;;;23.00;99.90;;;;;;5012101;28;20279;-87
2023/07/30 11:55:21;;;;;;;6.05;2.83;;;23.00;99.90;;;;;;5012761;28;20283;-86
2023/07/30 11:57:47;;;;;;;4.55;3.03;;;22.80;99.90;;;;;;4995263;28;20191;-87
2023/07/30 12:00:13;;;;;;;4.57;3.20;;;22.50;99.90;;;;;;4994872;28;20214;-86
2023/07/30 12:02:39;;;;;;;3.13;2.75;;;22.40;99.90;;;;;;5011778;28;20212;-86
2023/07/30 12:05:05;;;;;;;6.05;3.00;;;22.00;99.90;;;;;;5011184;28;20551;-87
2023/07/30 12:07:32;;;;;;;4.37;2.67;;;21.40;99.90;;;;;;5011805;28;20261;-87
2023/07/30 12:10:13;;;;;;;2.77;2.30;;;20.00;99.90;;;;;;5012322;28;20176;-86
2023/07/30 12:12:45;;;;;;;5.33;3.87;;;18.70;99.90;;;;;;4995694;28;20682;-87
2023/07/30 12:15:14;;;;;;;5.83;3.13;;;17.80;99.90;;;;;;5013387;28;20666;-87
2023/07/30 12:17:40;;;;;;;5.03;2.87;;;17.40;99.90;;;;;;5000961;28;20562;-86
2023/07/30 12:20:06;;;;;;;2.70;2.50;;;17.30;99.90;;;;;;5016756;28;20179;-86
2023/07/30 12:22:35;;;;;;;3.03;2.73;;;17.30;99.90;;;;;;5018037;28;20206;-86
2023/07/30 12:25:05;;;;;;;4.80;2.83;;;17.60;99.90;;;;;;5022510;28;20195;-86
2023/07/30 12:27:31;;;;;;;3.67;2.70;;;18.00;99.90;;;;;;5038190;28;20196;-86
2023/07/30 12:29:57;;;;;;;6.97;3.20;;;18.40;99.90;;;;;;5024150;28;20193;-87
2023/07/30 12:32:22;;;;;;;5.37;2.60;;;18.90;99.90;;;;;;5014384;28;20196;-86
2023/07/30 12:34:48;;;;;;;6.00;3.00;;;19.70;99.90;;;;;;5014828;28;20680;-86
2023/07/30 12:37:14;;;;;;;2.90;2.63;;;20.00;99.90;;;;;;5014530;28;20546;-86
2023/07/30 12:39:39;;;;;;;3.73;2.70;;;20.10;99.90;;;;;;5014329;28;20183;-86
2023/07/30 12:42:05;;;;;;;4.07;2.77;;;20.50;99.90;;;;;;5013998;28;20204;-87
2023/07/30 12:44:30;;;;;;;3.00;2.80;;;20.90;99.90;;;;;;5031419;28;20172;-86
2023/07/30 12:46:56;;;;;;;6.80;2.60;;;21.20;99.90;;;;;;5014950;28;20168;-87